createdAt,value
2019-05-12T00:00:28.771Z,16.70
2019-05-12T00:02:55.020Z,16.60
2019-05-12T00:05:21.446Z,16.60
2019-05-12T00:07:48.629Z,16.50
2019-05-12T00:10:17.756Z,16.40
2019-05-12T00:12:47.914Z,16.50
2019-05-12T00:15:15.267Z,16.50
2019-05-12T00:17:41.577Z,16.50
2019-05-12T00:20:08.541Z,16.50
2019-05-12T00:22:38.202Z,16.40
2019-05-12T00:25:05.453Z,16.50
2019-05-12T00:27:32.017Z,16.50
2019-05-12T00:29:58.528Z,16.50
2019-05-12T00:32:24.947Z,16.50
2019-05-12T00:34:51.445Z,16.50
2019-05-12T00:37:18.917Z,16.60
2019-05-12T00:39:47.699Z,16.50
2019-05-12T00:42:13.520Z,16.50
2019-05-12T00:44:40.867Z,16.50
2019-05-12T00:47:08.148Z,16.50
2019-05-12T00:49:34.665Z,16.50
2019-05-12T00:52:01.203Z,16.40
2019-05-12T00:54:28.546Z,16.40
2019-05-12T00:56:55.050Z,16.30
2019-05-12T00:59:21.408Z,16.40
2019-05-12T01:01:48.209Z,16.40
2019-05-12T01:04:14.661Z,16.30
2019-05-12T01:06:42.139Z,16.20
2019-05-12T01:09:08.930Z,16.20
2019-05-12T01:11:37.774Z,16.10
2019-05-12T01:14:04.849Z,16.10
2019-05-12T01:16:31.398Z,16.10
2019-05-12T01:18:58.632Z,16.10
2019-05-12T01:21:25.308Z,16.10
2019-05-12T01:23:57.120Z,16.10
2019-05-12T01:26:19.926Z,16.10
2019-05-12T01:28:48.783Z,16.00
2019-05-12T01:31:18.054Z,16.00
2019-05-12T01:33:45.529Z,16.00
2019-05-12T01:36:11.885Z,15.90
2019-05-12T01:39:03.168Z,15.90
2019-05-12T01:41:41.317Z,15.90
2019-05-12T01:44:08.839Z,16.00
2019-05-12T01:46:38.146Z,16.00
2019-05-12T01:49:03.967Z,15.90
2019-05-12T01:51:30.364Z,15.90
2019-05-12T01:54:08.544Z,15.90
2019-05-12T01:56:25.084Z,15.90
2019-05-12T01:58:51.574Z,15.90
2019-05-12T02:01:19.964Z,15.80
2019-05-12T02:03:48.064Z,15.90
2019-05-12T02:06:14.505Z,15.80
2019-05-12T02:08:49.048Z,15.90
2019-05-12T02:11:33.439Z,15.80
2019-05-12T02:14:03.266Z,15.80
2019-05-12T02:16:29.792Z,15.80
2019-05-12T02:18:58.237Z,15.80
2019-05-12T02:21:27.797Z,15.70
2019-05-12T02:23:53.588Z,15.80
2019-05-12T02:26:20.119Z,15.70
2019-05-12T02:28:48.069Z,15.70
2019-05-12T02:31:14.509Z,15.60
2019-05-12T02:33:44.472Z,15.60
2019-05-12T02:36:09.189Z,15.60
2019-05-12T02:38:36.613Z,15.60
2019-05-12T02:41:04.721Z,15.50
2019-05-12T02:43:34.838Z,15.40
2019-05-12T02:46:00.559Z,15.40
2019-05-12T02:48:27.121Z,15.50
2019-05-12T02:50:54.535Z,15.50
2019-05-12T02:53:24.601Z,15.50
2019-05-12T02:55:50.251Z,15.50
2019-05-12T02:58:16.808Z,15.40
2019-05-12T03:00:45.466Z,15.40
2019-05-12T03:03:14.660Z,15.40
2019-05-12T03:05:44.271Z,15.50
2019-05-12T03:08:14.969Z,15.50
2019-05-12T03:10:40.547Z,15.50
2019-05-12T03:13:06.946Z,15.50
2019-05-12T03:15:36.335Z,15.50
2019-05-12T03:18:05.617Z,15.40
2019-05-12T03:20:30.109Z,15.40
2019-05-12T03:22:56.618Z,15.30
2019-05-12T03:25:29.058Z,15.40
2019-05-12T03:27:54.492Z,15.30
2019-05-12T03:30:20.969Z,15.40
2019-05-12T03:32:48.055Z,15.40
2019-05-12T03:35:17.478Z,15.40
2019-05-12T03:37:45.312Z,15.40
2019-05-12T03:40:14.151Z,15.30
2019-05-12T03:42:39.377Z,15.40
2019-05-12T03:45:06.835Z,15.40
2019-05-12T03:47:35.504Z,15.40
2019-05-12T03:50:04.909Z,15.40
2019-05-12T03:52:34.692Z,15.50
2019-05-12T03:54:59.698Z,15.40
2019-05-12T03:57:26.122Z,15.40
2019-05-12T03:59:54.311Z,15.40
2019-05-12T04:02:20.764Z,15.40
2019-05-12T04:04:47.311Z,15.40
2019-05-12T04:07:15.430Z,15.40
2019-05-12T04:09:44.965Z,15.30
2019-05-12T04:12:10.092Z,15.30
2019-05-12T04:14:36.629Z,15.30
2019-05-12T04:17:04.741Z,15.20
2019-05-12T04:19:34.217Z,15.30
2019-05-12T04:21:59.580Z,15.30
2019-05-12T04:24:26.200Z,15.30
2019-05-12T04:26:55.196Z,15.30
2019-05-12T04:29:24.856Z,15.30
2019-05-12T04:31:50.019Z,15.30
2019-05-12T04:34:19.062Z,15.20
2019-05-12T04:36:45.141Z,15.30
2019-05-12T04:39:14.444Z,15.20
2019-05-12T04:41:39.856Z,15.20
2019-05-12T04:44:06.551Z,15.20
2019-05-12T04:46:34.887Z,15.20
2019-05-12T04:49:04.321Z,15.20
2019-05-12T04:51:34.673Z,15.20
2019-05-12T04:53:59.937Z,15.10
2019-05-12T04:56:26.540Z,15.20
2019-05-12T04:58:54.604Z,15.30
2019-05-12T05:01:21.281Z,15.30
2019-05-12T05:03:47.837Z,15.30
2019-05-12T05:06:15.019Z,15.30
2019-05-12T05:08:44.041Z,15.20
2019-05-12T05:11:09.743Z,15.30
2019-05-12T05:13:39.802Z,15.20
2019-05-12T05:16:05.635Z,15.20
2019-05-12T05:18:34.285Z,15.30
2019-05-12T05:21:00.262Z,15.30
2019-05-12T05:23:26.710Z,15.20
2019-05-12T05:25:53.839Z,15.20
2019-05-12T05:28:20.511Z,15.30
2019-05-12T05:30:47.154Z,15.30
2019-05-12T05:33:14.449Z,15.30
2019-05-12T05:35:43.574Z,15.30
2019-05-12T05:38:10.724Z,15.30
2019-05-12T05:40:38.377Z,15.30
2019-05-12T05:43:12.374Z,15.30
2019-05-12T05:45:35.162Z,15.20
2019-05-12T05:48:05.462Z,15.20
2019-05-12T05:50:31.015Z,15.10
2019-05-12T05:52:57.317Z,15.10
2019-05-12T05:55:25.539Z,15.10
2019-05-12T05:57:53.497Z,15.00
2019-05-12T06:00:22.987Z,15.10
2019-05-12T06:02:48.336Z,15.20
2019-05-12T06:05:14.782Z,15.20
2019-05-12T06:07:41.203Z,15.20
2019-05-12T06:10:07.847Z,15.30
2019-05-12T06:12:34.317Z,15.30
2019-05-12T06:15:00.773Z,15.20
2019-05-12T06:17:28.198Z,15.20
2019-05-12T06:19:54.578Z,15.20
2019-05-12T06:22:23.418Z,15.10
2019-05-12T06:24:56.952Z,15.00
2019-05-12T06:27:20.978Z,15.10
2019-05-12T06:29:45.828Z,15.00
2019-05-12T06:32:14.147Z,15.00
2019-05-12T06:34:40.660Z,15.00
2019-05-12T06:37:11.979Z,15.00
2019-05-12T06:39:35.543Z,14.90
2019-05-12T06:42:12.017Z,14.90
2019-05-12T06:44:30.505Z,14.90
2019-05-12T06:47:03.482Z,14.90
2019-05-12T06:49:26.713Z,14.90
2019-05-12T06:52:01.278Z,15.00
2019-05-12T06:54:24.606Z,14.90
2019-05-12T06:56:57.834Z,15.00
2019-05-12T06:59:18.896Z,15.00
2019-05-12T07:01:49.940Z,15.00
2019-05-12T07:04:14.608Z,15.10
2019-05-12T07:06:43.929Z,15.10
2019-05-12T07:09:15.630Z,15.00
2019-05-12T07:11:45.014Z,15.00
2019-05-12T07:14:13.036Z,15.00
2019-05-12T07:16:35.896Z,14.90
2019-05-12T07:19:07.549Z,14.90
2019-05-12T07:21:33.374Z,14.90
2019-05-12T07:24:06.697Z,14.90
2019-05-12T07:26:33.934Z,14.90
2019-05-12T07:29:04.394Z,14.90
2019-05-12T07:31:30.868Z,14.90
2019-05-12T07:33:57.570Z,14.80
2019-05-12T07:36:24.833Z,14.80
2019-05-12T07:38:58.087Z,14.80
2019-05-12T07:41:21.017Z,14.80
2019-05-12T07:43:50.514Z,14.80
2019-05-12T07:46:16.861Z,14.80
2019-05-12T07:48:48.943Z,14.70
2019-05-12T07:51:13.801Z,14.80
2019-05-12T07:53:40.283Z,14.70
2019-05-12T07:56:06.801Z,14.70
2019-05-12T07:58:33.433Z,14.80
2019-05-12T08:01:07.154Z,14.70
2019-05-12T08:03:28.330Z,14.70
2019-05-12T08:05:59.790Z,14.70
2019-05-12T08:08:23.670Z,14.70
2019-05-12T08:10:51.565Z,14.70
2019-05-12T08:13:18.828Z,14.70
2019-05-12T08:15:49.341Z,14.70
2019-05-12T08:18:14.117Z,14.60
2019-05-12T08:20:40.790Z,14.60
2019-05-12T08:23:10.468Z,14.60
2019-05-12T08:25:35.857Z,14.60
2019-05-12T08:28:12.423Z,14.70
2019-05-12T08:30:33.991Z,14.70
2019-05-12T08:33:07.245Z,14.80
2019-05-12T08:35:34.801Z,14.70
2019-05-12T08:37:58.088Z,14.70
2019-05-12T08:40:24.871Z,14.80
2019-05-12T08:42:53.866Z,14.80
2019-05-12T08:45:28.875Z,14.70
2019-05-12T08:47:51.224Z,14.70
2019-05-12T08:50:23.101Z,14.70
2019-05-12T08:52:47.720Z,14.70
2019-05-12T08:55:16.828Z,14.70
2019-05-12T08:57:49.230Z,14.70
2019-05-12T09:00:13.300Z,14.60
2019-05-12T09:02:48.345Z,14.50
2019-05-12T09:05:08.692Z,14.50
2019-05-12T09:07:39.726Z,14.50
2019-05-12T09:10:07.048Z,14.50
2019-05-12T09:12:33.843Z,14.50
2019-05-12T09:15:01.393Z,14.50
2019-05-12T09:17:28.061Z,14.50
2019-05-12T09:20:02.584Z,14.50
2019-05-12T09:22:24.142Z,14.50
2019-05-12T09:24:53.257Z,14.50
2019-05-12T09:27:19.735Z,14.50
2019-05-12T09:29:46.707Z,14.50
2019-05-12T09:32:15.476Z,14.50
2019-05-12T09:34:46.886Z,14.50
2019-05-12T09:37:10.044Z,14.40
2019-05-12T09:39:42.461Z,14.50
2019-05-12T09:42:05.928Z,14.40
2019-05-12T09:44:34.026Z,14.50
2019-05-12T09:47:00.662Z,14.50
2019-05-12T09:49:31.288Z,14.50
2019-05-12T09:51:55.361Z,14.50
2019-05-12T09:54:26.133Z,14.40
2019-05-12T09:56:55.414Z,14.40
2019-05-12T09:59:23.614Z,14.40
2019-05-12T10:01:50.882Z,14.40
2019-05-12T10:04:19.607Z,14.40
2019-05-12T10:06:46.083Z,14.40
2019-05-12T10:09:15.639Z,14.40
2019-05-12T10:11:41.316Z,14.30
2019-05-12T10:14:11.067Z,14.30
2019-05-12T10:16:39.579Z,14.40
2019-05-12T10:19:08.424Z,14.50
2019-05-12T10:21:36.010Z,14.60
2019-05-12T10:24:04.973Z,14.60
2019-05-12T10:26:31.501Z,14.60
2019-05-12T10:28:59.824Z,14.60
2019-05-12T10:31:29.520Z,14.60
2019-05-12T10:33:58.350Z,14.70
2019-05-12T10:36:24.771Z,14.60
2019-05-12T10:38:53.714Z,14.60
2019-05-12T10:41:19.732Z,14.70
2019-05-12T10:43:48.409Z,14.70
2019-05-12T10:46:18.314Z,14.70
2019-05-12T10:48:44.309Z,14.70
2019-05-12T10:51:11.011Z,14.60
2019-05-12T10:53:37.818Z,14.60
2019-05-12T10:56:08.957Z,14.60
2019-05-12T10:58:36.131Z,14.50
2019-05-12T11:01:05.415Z,14.60
2019-05-12T11:03:33.641Z,14.60
2019-05-12T11:06:02.412Z,14.50
2019-05-12T11:08:27.985Z,14.50
2019-05-12T11:10:57.645Z,14.50
2019-05-12T11:13:23.405Z,14.50
2019-05-12T11:15:50.421Z,14.50
2019-05-12T11:18:20.461Z,14.50
2019-05-12T11:20:45.511Z,14.50
2019-05-12T11:23:13.761Z,14.50
2019-05-12T11:25:40.616Z,14.50
2019-05-12T11:28:07.071Z,14.50
2019-05-12T11:30:34.511Z,14.50
2019-05-12T11:33:04.749Z,14.50
2019-05-12T11:35:32.347Z,14.40
2019-05-12T11:37:58.824Z,14.40
2019-05-12T11:40:27.448Z,14.50
2019-05-12T11:42:59.447Z,14.50
2019-05-12T11:45:24.204Z,14.60
2019-05-12T11:47:50.819Z,14.60
2019-05-12T11:50:17.416Z,14.70
2019-05-12T11:52:45.931Z,14.70
2019-05-12T11:55:13.473Z,14.70
2019-05-12T11:57:43.654Z,14.70
2019-05-12T12:00:13.627Z,14.70
2019-05-12T12:02:39.598Z,14.60
2019-05-12T12:05:06.183Z,14.60
2019-05-12T12:07:33.351Z,14.60
2019-05-12T12:10:00.082Z,14.60
2019-05-12T12:12:26.585Z,14.70
2019-05-12T12:14:53.638Z,14.70
2019-05-12T12:17:25.423Z,14.80
2019-05-12T12:19:48.596Z,14.70
2019-05-12T12:22:20.327Z,14.70
2019-05-12T12:24:44.706Z,14.70
2019-05-12T12:27:11.369Z,14.70
2019-05-12T12:29:37.988Z,14.60
2019-05-12T12:32:04.556Z,14.70
2019-05-12T12:34:33.060Z,14.60
2019-05-12T12:36:59.397Z,14.60
2019-05-12T12:39:25.918Z,14.60
2019-05-12T12:41:56.335Z,14.60
2019-05-12T12:44:21.286Z,14.50
2019-05-12T12:46:51.158Z,14.50
2019-05-12T12:49:15.944Z,14.50
2019-05-12T12:51:43.530Z,14.50
2019-05-12T12:54:09.946Z,14.50
2019-05-12T12:56:37.869Z,14.50
2019-05-12T12:59:10.100Z,14.50
2019-05-12T13:01:33.604Z,14.50
2019-05-12T13:04:04.891Z,14.60
2019-05-12T13:06:30.350Z,14.60
2019-05-12T13:08:56.872Z,14.50
2019-05-12T13:11:33.272Z,14.50
2019-05-12T13:13:53.450Z,14.50
2019-05-12T13:16:19.861Z,14.60
2019-05-12T13:18:47.619Z,14.60
2019-05-12T13:21:14.201Z,14.50
2019-05-12T13:23:41.377Z,14.50
2019-05-12T13:26:07.779Z,14.50
2019-05-12T13:28:35.540Z,14.60
2019-05-12T13:31:11.042Z,14.60
2019-05-12T13:33:30.508Z,14.50
2019-05-12T13:35:57.578Z,14.60
2019-05-12T13:38:24.261Z,14.60
2019-05-12T13:40:54.111Z,14.60
2019-05-12T13:43:20.638Z,14.60
2019-05-12T13:45:47.091Z,14.60
2019-05-12T13:48:15.872Z,14.60
2019-05-12T13:50:43.835Z,14.60
2019-05-12T13:53:10.475Z,14.70
2019-05-12T13:55:39.475Z,14.60
2019-05-12T13:58:05.307Z,14.60
2019-05-12T14:00:33.614Z,14.50
2019-05-12T14:03:04.741Z,14.60
2019-05-12T14:05:28.556Z,14.50
2019-05-12T14:07:57.042Z,14.60
2019-05-12T14:10:24.500Z,14.60
2019-05-12T14:12:53.908Z,14.60
2019-05-12T14:15:19.873Z,14.60
2019-05-12T14:17:46.881Z,14.70
2019-05-12T14:20:15.691Z,14.60
2019-05-12T14:22:41.911Z,14.70
2019-05-12T14:25:09.217Z,14.60
2019-05-12T14:27:36.007Z,14.60
2019-05-12T14:30:09.979Z,14.60
2019-05-12T14:32:33.624Z,14.70
2019-05-12T14:35:04.128Z,14.70
2019-05-12T14:37:30.331Z,14.70
2019-05-12T14:39:56.984Z,14.70
2019-05-12T14:42:25.966Z,14.70
2019-05-12T14:44:53.726Z,14.70
2019-05-12T14:47:27.917Z,14.70
2019-05-12T14:49:48.405Z,14.70
2019-05-12T14:52:17.519Z,14.70
2019-05-12T14:54:43.936Z,14.70
2019-05-12T14:57:13.738Z,14.70
2019-05-12T14:59:41.247Z,14.80
2019-05-12T15:02:08.912Z,14.90
2019-05-12T15:04:35.429Z,14.80
2019-05-12T15:07:08.043Z,14.80
2019-05-12T15:09:30.571Z,14.80
2019-05-12T15:11:57.303Z,14.70
2019-05-12T15:14:32.693Z,14.70
2019-05-12T15:16:55.026Z,14.80
2019-05-12T15:19:27.171Z,14.70
2019-05-12T15:21:49.900Z,14.80
2019-05-12T15:24:19.028Z,14.80
2019-05-12T15:26:44.701Z,14.80
2019-05-12T15:29:18.029Z,14.80
2019-05-12T15:31:52.682Z,14.80
2019-05-12T15:34:08.306Z,14.80
2019-05-12T15:36:34.936Z,14.80
2019-05-12T15:39:03.437Z,14.80
2019-05-12T15:41:30.491Z,14.70
2019-05-12T15:43:56.962Z,14.70
2019-05-12T15:46:24.530Z,14.70
2019-05-12T15:48:53.403Z,14.60
2019-05-12T15:51:19.240Z,14.70
2019-05-12T15:53:45.717Z,14.70
2019-05-12T15:56:16.546Z,14.60
2019-05-12T15:58:40.543Z,14.70
2019-05-12T16:01:08.290Z,14.60
2019-05-12T16:03:36.479Z,14.60
2019-05-12T16:06:10.222Z,14.60
2019-05-12T16:08:32.335Z,14.60
2019-05-12T16:10:58.768Z,14.60
2019-05-12T16:13:25.226Z,14.50
2019-05-12T16:15:55.712Z,14.60
2019-05-12T16:18:19.931Z,14.60
2019-05-12T16:20:46.375Z,14.60
2019-05-12T16:23:17.221Z,14.60
2019-05-12T16:25:41.534Z,14.60
2019-05-12T16:28:17.587Z,14.60
2019-05-12T16:30:36.334Z,14.50
2019-05-12T16:33:03.560Z,14.50
2019-05-12T16:35:31.827Z,14.50
2019-05-12T16:37:58.563Z,14.50
2019-05-12T16:40:25.443Z,14.50
2019-05-12T16:42:58.910Z,14.60
2019-05-12T16:45:23.318Z,14.50
2019-05-12T16:47:49.366Z,14.50
2019-05-12T16:50:24.020Z,14.40
2019-05-12T16:52:45.395Z,14.40
2019-05-12T16:55:12.469Z,14.30
2019-05-12T16:57:50.563Z,14.30
2019-05-12T17:00:07.316Z,14.40
2019-05-12T17:02:41.801Z,14.30
2019-05-12T17:05:06.657Z,14.30
2019-05-12T17:07:34.435Z,14.30
2019-05-12T17:10:02.895Z,14.20
2019-05-12T17:12:31.851Z,14.30
2019-05-12T17:14:59.791Z,14.40
2019-05-12T17:17:26.629Z,14.40
2019-05-12T17:19:54.012Z,14.30
2019-05-12T17:22:20.754Z,14.30
2019-05-12T17:24:47.141Z,14.30
2019-05-12T17:27:17.951Z,14.30
2019-05-12T17:29:43.513Z,14.30
2019-05-12T17:32:10.008Z,14.20
2019-05-12T17:34:40.230Z,14.20
2019-05-12T17:37:04.613Z,14.20
2019-05-12T17:39:37.275Z,14.20
2019-05-12T17:41:59.479Z,14.10
2019-05-12T17:44:26.082Z,14.20
2019-05-12T17:46:54.096Z,14.20
2019-05-12T17:49:25.423Z,14.20
2019-05-12T17:51:49.115Z,14.10
2019-05-12T17:54:21.491Z,14.20
2019-05-12T17:56:43.950Z,14.20
2019-05-12T17:59:16.979Z,14.20
2019-05-12T18:01:38.630Z,14.10
2019-05-12T18:04:05.217Z,14.10
2019-05-12T18:06:34.098Z,14.10
2019-05-12T18:09:00.627Z,14.10
2019-05-12T18:11:28.049Z,14.20
2019-05-12T18:14:01.742Z,14.10
2019-05-12T18:16:24.941Z,14.10
2019-05-12T18:18:51.276Z,14.10
2019-05-12T18:21:21.521Z,14.10
2019-05-12T18:23:45.867Z,14.10
2019-05-12T18:26:16.075Z,14.10
2019-05-12T18:28:40.767Z,14.10
2019-05-12T18:31:07.263Z,14.10
2019-05-12T18:33:37.250Z,14.10
2019-05-12T18:36:03.881Z,14.00
2019-05-12T18:38:32.111Z,14.10
2019-05-12T18:40:58.742Z,14.00
2019-05-12T18:43:25.204Z,14.00
2019-05-12T18:45:57.079Z,14.00
2019-05-12T18:48:22.345Z,14.00
2019-05-12T18:50:49.310Z,14.00
2019-05-12T18:53:27.557Z,14.00
2019-05-12T18:55:45.205Z,14.00
2019-05-12T18:58:14.799Z,14.00
2019-05-12T19:00:43.485Z,14.00
2019-05-12T19:03:22.810Z,14.00
2019-05-12T19:05:58.322Z,13.90
2019-05-12T19:08:45.205Z,13.90
2019-05-12T19:11:22.789Z,13.80
2019-05-12T19:14:06.478Z,13.70
2019-05-12T19:16:40.161Z,13.70
2019-05-12T19:19:25.948Z,13.70
2019-05-12T19:22:06.809Z,13.70
2019-05-12T19:24:50.101Z,13.80
2019-05-12T19:27:23.940Z,13.80
2019-05-12T19:30:09.848Z,13.80
2019-05-12T19:32:45.087Z,13.80
2019-05-12T19:35:34.113Z,13.80
2019-05-12T19:38:06.680Z,13.80
2019-05-12T19:40:58.657Z,13.80
2019-05-12T19:43:26.993Z,13.90
2019-05-12T19:46:03.334Z,13.90
2019-05-12T19:48:35.141Z,13.90
2019-05-12T19:51:25.556Z,13.90
2019-05-12T19:53:50.939Z,13.90
2019-05-12T19:56:18.958Z,13.90
2019-05-12T19:58:45.975Z,13.90
2019-05-12T20:01:14.063Z,13.90
2019-05-12T20:03:40.668Z,13.90
2019-05-12T20:06:07.088Z,13.80
2019-05-12T20:08:33.381Z,13.80
2019-05-12T20:10:59.776Z,13.80
2019-05-12T20:13:29.607Z,13.90
2019-05-12T20:15:54.602Z,13.80
2019-05-12T20:18:23.409Z,13.80
2019-05-12T20:20:49.293Z,13.90
2019-05-12T20:23:15.789Z,13.80
2019-05-12T20:25:44.198Z,13.90
2019-05-12T20:28:11.554Z,13.90
2019-05-12T20:30:39.040Z,13.90
2019-05-12T20:33:08.047Z,13.90
2019-05-12T20:35:33.852Z,13.90
2019-05-12T20:38:00.324Z,14.00
2019-05-12T20:40:26.730Z,13.90
2019-05-12T20:43:07.303Z,14.00
2019-05-12T20:45:25.594Z,14.00
2019-05-12T20:47:49.879Z,14.00
2019-05-12T20:50:16.436Z,13.90
2019-05-12T20:52:46.424Z,13.90
2019-05-12T20:55:14.432Z,13.90
2019-05-12T20:57:51.927Z,13.90
2019-05-12T21:00:10.203Z,14.00
2019-05-12T21:02:36.689Z,13.90
2019-05-12T21:05:14.502Z,13.90
2019-05-12T21:07:33.966Z,13.90
2019-05-12T21:10:04.068Z,13.80
2019-05-12T21:12:33.304Z,13.90
2019-05-12T21:15:12.659Z,13.80
2019-05-12T21:17:39.351Z,13.90
2019-05-12T21:19:59.449Z,13.90
2019-05-12T21:22:25.485Z,13.90
2019-05-12T21:24:53.387Z,13.90
2019-05-12T21:27:20.075Z,13.90
2019-05-12T21:29:46.520Z,13.80
2019-05-12T21:32:16.709Z,13.90
2019-05-12T21:34:43.534Z,13.80
2019-05-12T21:37:09.420Z,13.80
2019-05-12T21:39:40.622Z,13.80
2019-05-12T21:42:05.191Z,13.80
2019-05-12T21:44:31.609Z,13.90
2019-05-12T21:47:06.860Z,13.90
2019-05-12T21:49:26.241Z,13.90
2019-05-12T21:51:59.423Z,13.90
2019-05-12T21:54:20.886Z,13.80
2019-05-12T21:56:49.522Z,13.80
2019-05-12T21:59:15.992Z,13.80
2019-05-12T22:01:45.739Z,13.80
2019-05-12T22:04:11.517Z,13.80
2019-05-12T22:06:37.990Z,13.70
2019-05-12T22:09:05.652Z,13.80
2019-05-12T22:11:34.415Z,13.70
2019-05-12T22:14:00.446Z,13.70
2019-05-12T22:16:29.631Z,13.60
2019-05-12T22:18:59.399Z,13.60
2019-05-12T22:21:25.355Z,13.60
2019-05-12T22:23:53.666Z,13.60
2019-05-12T22:26:20.994Z,13.70
2019-05-12T22:28:50.911Z,13.70
2019-05-12T22:31:15.726Z,13.60
2019-05-12T22:33:49.748Z,13.70
2019-05-12T22:36:24.741Z,13.70
2019-05-12T22:38:40.161Z,13.70
2019-05-12T22:41:06.590Z,13.70
2019-05-12T22:43:40.956Z,13.70
2019-05-12T22:46:04.536Z,13.70
2019-05-12T22:48:37.371Z,13.80
2019-05-12T22:50:59.238Z,13.60
2019-05-12T22:53:29.812Z,13.70
2019-05-12T22:55:53.900Z,13.60
2019-05-12T22:58:24.856Z,13.60
2019-05-12T23:00:51.389Z,13.70
2019-05-12T23:03:17.857Z,13.60
2019-05-12T23:05:44.401Z,13.60
2019-05-12T23:08:10.893Z,13.60
2019-05-12T23:10:41.431Z,13.60
2019-05-12T23:13:05.514Z,13.50
2019-05-12T23:15:33.463Z,13.50
2019-05-12T23:18:00.285Z,13.50
2019-05-12T23:20:30.958Z,13.50
2019-05-12T23:22:55.987Z,13.60
2019-05-12T23:25:24.428Z,13.60
2019-05-12T23:27:50.686Z,13.60
2019-05-12T23:30:18.251Z,13.60
2019-05-12T23:32:51.569Z,13.60
2019-05-12T23:35:14.430Z,13.50
2019-05-12T23:37:41.189Z,13.50
2019-05-12T23:40:11.564Z,13.40
2019-05-12T23:42:35.763Z,13.50
2019-05-12T23:45:03.672Z,13.50
2019-05-12T23:47:30.110Z,13.60
2019-05-12T23:49:56.517Z,13.60
2019-05-12T23:52:24.156Z,13.60
2019-05-12T23:54:50.583Z,13.50
2019-05-12T23:57:18.125Z,13.50
2019-05-12T23:59:45.634Z,13.50
